sensor_id;sensor_type;location;lat;lon;timestamp;pressure;altitude;pressure_sealevel;temperature;humidity
69955;BME280;57279;55.912;37.490;2023-05-31T00:02:03;98940.59;;;11.52;72.67
69955;BME280;57279;55.912;37.490;2023-05-31T00:04:28;98947.38;;;11.45;72.72
69955;BME280;57279;55.912;37.490;2023-05-31T00:06:54;98947.69;;;11.33;72.78
69955;BME280;57279;55.912;37.490;2023-05-31T00:09:20;98957.66;;;11.38;72.91
69955;BME280;57279;55.912;37.490;2023-05-31T00:11:45;98944.47;;;11.26;73.44
69955;BME280;57279;55.912;37.490;2023-05-31T00:14:11;98952.56;;;11.26;73.35
69955;BME280;57279;55.912;37.490;2023-05-31T00:16:37;98952.31;;;11.17;73.44
69955;BME280;57279;55.912;37.490;2023-05-31T00:19:03;98950.19;;;11.14;73.64
69955;BME280;57279;55.912;37.490;2023-05-31T00:21:28;98957.47;;;11.08;73.86
69955;BME280;57279;55.912;37.490;2023-05-31T00:23:54;98960.19;;;11.08;73.86
69955;BME280;57279;55.912;37.490;2023-05-31T00:26:20;98965.28;;;11.10;74.16
69955;BME280;57279;55.912;37.490;2023-05-31T00:28:47;98968.56;;;11.12;74.20
69955;BME280;57279;55.912;37.490;2023-05-31T00:31:13;98972.84;;;11.13;73.64
69955;BME280;57279;55.912;37.490;2023-05-31T00:33:39;98977.44;;;11.02;74.08
69955;BME280;57279;55.912;37.490;2023-05-31T00:36:05;98979.34;;;10.96;73.70
69955;BME280;57279;55.912;37.490;2023-05-31T00:38:31;98982.34;;;10.90;74.07
69955;BME280;57279;55.912;37.490;2023-05-31T00:40:56;98979.38;;;10.76;74.71
69955;BME280;57279;55.912;37.490;2023-05-31T00:43:22;98979.09;;;10.72;74.88
69955;BME280;57279;55.912;37.490;2023-05-31T00:45:49;98988.53;;;10.75;74.64
69955;BME280;57279;55.912;37.490;2023-05-31T00:48:15;98977.75;;;10.65;75.07
69955;BME280;57279;55.912;37.490;2023-05-31T00:50:41;98970.44;;;10.60;75.08
69955;BME280;57279;55.912;37.490;2023-05-31T00:53:07;98976.69;;;10.61;75.15
69955;BME280;57279;55.912;37.490;2023-05-31T00:55:34;98974.50;;;10.47;75.33
69955;BME280;57279;55.912;37.490;2023-05-31T00:58:03;98969.38;;;10.46;75.69
69955;BME280;57279;55.912;37.490;2023-05-31T01:00:30;98964.50;;;10.37;75.82
69955;BME280;57279;55.912;37.490;2023-05-31T01:02:56;98974.22;;;10.39;75.94
69955;BME280;57279;55.912;37.490;2023-05-31T01:05:26;98964.78;;;10.36;76.08
69955;BME280;57279;55.912;37.490;2023-05-31T01:07:52;98968.03;;;10.38;76.09
69955;BME280;57279;55.912;37.490;2023-05-31T01:10:19;98968.00;;;10.33;76.15
69955;BME280;57279;55.912;37.490;2023-05-31T01:15:51;98966.66;;;10.30;76.36
69955;BME280;57279;55.912;37.490;2023-05-31T01:18:23;98964.25;;;10.34;76.13
69955;BME280;57279;55.912;37.490;2023-05-31T01:20:52;98960.44;;;10.35;76.42
69955;BME280;57279;55.912;37.490;2023-05-31T01:23:59;98954.53;;;10.38;76.25
69955;BME280;57279;55.912;37.490;2023-05-31T01:26:43;98956.97;;;10.40;76.34
69955;BME280;57279;55.912;37.490;2023-05-31T01:29:13;98967.75;;;10.40;76.62
69955;BME280;57279;55.912;37.490;2023-05-31T01:31:41;98968.56;;;10.40;76.61
69955;BME280;57279;55.912;37.490;2023-05-31T01:34:08;98960.47;;;10.40;76.91
69955;BME280;57279;55.912;37.490;2023-05-31T01:36:33;98959.38;;;10.41;76.83
69955;BME280;57279;55.912;37.490;2023-05-31T01:39:02;98953.19;;;10.46;76.70
69955;BME280;57279;55.912;37.490;2023-05-31T01:41:31;98957.47;;;10.36;77.20
69955;BME280;57279;55.912;37.490;2023-05-31T01:43:59;98958.56;;;10.41;77.20
69955;BME280;57279;55.912;37.490;2023-05-31T01:46:26;98964.25;;;10.44;76.74
69955;BME280;57279;55.912;37.490;2023-05-31T01:48:52;98964.50;;;10.48;77.11
69955;BME280;57279;55.912;37.490;2023-05-31T01:51:19;98960.22;;;10.57;76.72
69955;BME280;57279;55.912;37.490;2023-05-31T01:53:47;98958.84;;;10.65;76.74
69955;BME280;57279;55.912;37.490;2023-05-31T01:56:13;98963.44;;;10.74;76.31
69955;BME280;57279;55.912;37.490;2023-05-31T01:58:40;98964.78;;;10.82;76.13
69955;BME280;57279;55.912;37.490;2023-05-31T02:01:10;98968.28;;;10.67;76.71
69955;BME280;57279;55.912;37.490;2023-05-31T02:03:38;98968.31;;;10.72;76.49
69955;BME280;57279;55.912;37.490;2023-05-31T02:06:04;98968.31;;;10.72;76.71
69955;BME280;57279;55.912;37.490;2023-05-31T02:08:30;98969.09;;;10.68;76.90
69955;BME280;57279;55.912;37.490;2023-05-31T02:10:56;98971.53;;;10.74;77.01
69955;BME280;57279;55.912;37.490;2023-05-31T02:13:26;98976.41;;;10.83;76.82
69955;BME280;57279;55.912;37.490;2023-05-31T02:15:53;98976.41;;;10.88;76.65
69955;BME280;57279;55.912;37.490;2023-05-31T02:18:19;98979.66;;;10.95;76.34
69955;BME280;57279;55.912;37.490;2023-05-31T02:21:05;98970.72;;;11.00;76.29
69955;BME280;57279;55.912;37.490;2023-05-31T02:23:31;98965.84;;;11.12;76.03
69955;BME280;57279;55.912;37.490;2023-05-31T02:25:57;98959.63;;;11.17;75.86
69955;BME280;57279;55.912;37.490;2023-05-31T02:28:23;98964.19;;;11.21;75.56
69955;BME280;57279;55.912;37.490;2023-05-31T02:30:57;98962.84;;;11.24;75.38
69955;BME280;57279;55.912;37.490;2023-05-31T02:33:24;98955.28;;;11.31;75.34
69955;BME280;57279;55.912;37.490;2023-05-31T02:35:50;98965.50;;;11.44;75.03
69955;BME280;57279;55.912;37.490;2023-05-31T02:38:16;98963.59;;;11.45;74.77
69955;BME280;57279;55.912;37.490;2023-05-31T02:40:43;98965.50;;;11.39;74.87
69955;BME280;57279;55.912;37.490;2023-05-31T02:43:08;98963.34;;;11.41;74.70
69955;BME280;57279;55.912;37.490;2023-05-31T02:45:34;98958.47;;;11.48;74.56
69955;BME280;57279;55.912;37.490;2023-05-31T02:48:00;98963.56;;;11.55;74.34
69955;BME280;57279;55.912;37.490;2023-05-31T02:50:31;98961.66;;;11.55;74.36
69955;BME280;57279;55.912;37.490;2023-05-31T02:52:58;98967.84;;;11.61;74.23
69955;BME280;57279;55.912;37.490;2023-05-31T02:56:01;98963.81;;;11.64;73.84
69955;BME280;57279;55.912;37.490;2023-05-31T02:58:53;98966.47;;;11.74;73.70
69955;BME280;57279;55.912;37.490;2023-05-31T03:01:53;98955.38;;;11.76;73.32
69955;BME280;57279;55.912;37.490;2023-05-31T03:04:42;98961.84;;;11.74;73.76
69955;BME280;57279;55.912;37.490;2023-05-31T03:07:08;98969.97;;;11.80;73.51
69955;BME280;57279;55.912;37.490;2023-05-31T03:09:34;98965.91;;;11.82;73.35
69955;BME280;57279;55.912;37.490;2023-05-31T03:12:01;98969.16;;;11.84;73.18
69955;BME280;57279;55.912;37.490;2023-05-31T03:14:28;98973.53;;;11.65;73.60
69955;BME280;57279;55.912;37.490;2023-05-31T03:16:54;98973.78;;;11.73;73.95
69955;BME280;57279;55.912;37.490;2023-05-31T03:19:20;98974.31;;;11.70;73.88
69955;BME280;57279;55.912;37.490;2023-05-31T03:21:49;98979.19;;;11.68;74.21
69955;BME280;57279;55.912;37.490;2023-05-31T03:24:15;98975.09;;;11.76;73.82
69955;BME280;57279;55.912;37.490;2023-05-31T03:26:42;98983.22;;;11.76;74.26
69955;BME280;57279;55.912;37.490;2023-05-31T03:29:07;98977.28;;;11.79;73.92
69955;BME280;57279;55.912;37.490;2023-05-31T03:31:34;98975.97;;;11.66;74.09
69955;BME280;57279;55.912;37.490;2023-05-31T03:34:00;98985.97;;;11.61;74.64
69955;BME280;57279;55.912;37.490;2023-05-31T03:36:26;98984.97;;;11.46;74.89
69955;BME280;57279;55.912;37.490;2023-05-31T03:38:51;98981.44;;;11.46;75.47
69955;BME280;57279;55.912;37.490;2023-05-31T03:41:17;98984.91;;;11.57;75.42
69955;BME280;57279;55.912;37.490;2023-05-31T03:43:43;98977.88;;;11.61;74.83
69955;BME280;57279;55.912;37.490;2023-05-31T03:46:09;98996.25;;;11.64;74.62
69955;BME280;57279;55.912;37.490;2023-05-31T03:48:35;98998.44;;;11.51;75.34
69955;BME280;57279;55.912;37.490;2023-05-31T03:51:01;98997.91;;;11.49;75.32
69955;BME280;57279;55.912;37.490;2023-05-31T03:53:27;98997.91;;;11.54;75.50
69955;BME280;57279;55.912;37.490;2023-05-31T03:55:53;99002.50;;;11.54;75.16
69955;BME280;57279;55.912;37.490;2023-05-31T03:58:19;98993.88;;;11.52;75.66
69955;BME280;57279;55.912;37.490;2023-05-31T04:00:46;98992.22;;;11.51;75.91
69955;BME280;57279;55.912;37.490;2023-05-31T04:03:12;98995.25;;;11.44;76.67
69955;BME280;57279;55.912;37.490;2023-05-31T04:05:39;98992.81;;;11.38;77.40
69955;BME280;57279;55.912;37.490;2023-05-31T04:08:06;98987.41;;;11.38;77.30
69955;BME280;57279;55.912;37.490;2023-05-31T04:10:33;98986.06;;;11.35;77.76
69955;BME280;57279;55.912;37.490;2023-05-31T04:12:59;98982.53;;;11.34;78.14
69955;BME280;57279;55.912;37.490;2023-05-31T04:15:26;98994.44;;;11.28;78.58
69955;BME280;57279;55.912;37.490;2023-05-31T04:17:56;98988.78;;;11.30;78.40
69955;BME280;57279;55.912;37.490;2023-05-31T04:20:22;98989.56;;;11.30;78.48
69955;BME280;57279;55.912;37.490;2023-05-31T04:22:48;98993.91;;;11.31;78.24
69955;BME280;57279;55.912;37.490;2023-05-31T04:25:15;98983.38;;;11.30;78.56
69955;BME280;57279;55.912;37.490;2023-05-31T04:27:43;98992.56;;;11.13;79.06
69955;BME280;57279;55.912;37.490;2023-05-31T04:30:09;98999.06;;;11.07;79.31
69955;BME280;57279;55.912;37.490;2023-05-31T04:32:34;98989.09;;;10.98;79.43
69955;BME280;57279;55.912;37.490;2023-05-31T04:35:01;98999.09;;;10.97;79.74
69955;BME280;57279;55.912;37.490;2023-05-31T04:37:30;98993.13;;;10.85;81.08
69955;BME280;57279;55.912;37.490;2023-05-31T04:39:59;98992.34;;;10.89;83.73
69955;BME280;57279;55.912;37.490;2023-05-31T04:42:28;98988.00;;;10.83;83.84
69955;BME280;57279;55.912;37.490;2023-05-31T04:44:55;98987.75;;;10.80;84.13
69955;BME280;57279;55.912;37.490;2023-05-31T04:47:35;98989.63;;;10.84;84.04
69955;BME280;57279;55.912;37.490;2023-05-31T04:50:01;98981.78;;;10.98;84.35
69955;BME280;57279;55.912;37.490;2023-05-31T04:52:29;98976.38;;;10.98;83.15
69955;BME280;57279;55.912;37.490;2023-05-31T04:54:57;98969.34;;;11.07;82.78
69955;BME280;57279;55.912;37.490;2023-05-31T04:57:24;98966.13;;;10.90;82.21
69955;BME280;57279;55.912;37.490;2023-05-31T04:59:53;98972.06;;;11.02;82.86
69955;BME280;57279;55.912;37.490;2023-05-31T05:02:22;98965.31;;;11.00;82.74
69955;BME280;57279;55.912;37.490;2023-05-31T05:04:49;98962.88;;;11.08;82.29
69955;BME280;57279;55.912;37.490;2023-05-31T05:07:16;98954.47;;;11.10;82.21
69955;BME280;57279;55.912;37.490;2023-05-31T05:09:43;98963.41;;;11.05;82.27
69955;BME280;57279;55.912;37.490;2023-05-31T05:12:09;98961.28;;;10.97;82.29
69955;BME280;57279;55.912;37.490;2023-05-31T05:14:40;98956.09;;;11.06;82.29
69955;BME280;57279;55.912;37.490;2023-05-31T05:17:07;98960.16;;;11.13;82.30
69955;BME280;57279;55.912;37.490;2023-05-31T05:19:33;98957.72;;;11.22;81.78
69955;BME280;57279;55.912;37.490;2023-05-31T05:22:00;98961.78;;;11.20;81.37
69955;BME280;57279;55.912;37.490;2023-05-31T05:24:25;98956.66;;;11.23;81.94
69955;BME280;57279;55.912;37.490;2023-05-31T05:26:52;98962.03;;;11.23;81.25
69955;BME280;57279;55.912;37.490;2023-05-31T05:29:18;98959.31;;;11.28;81.01
69955;BME280;57279;55.912;37.490;2023-05-31T05:31:45;98960.16;;;11.24;80.92
69955;BME280;57279;55.912;37.490;2023-05-31T05:34:10;98962.31;;;11.11;80.68
69955;BME280;57279;55.912;37.490;2023-05-31T05:36:36;98965.03;;;11.17;81.09
69955;BME280;57279;55.912;37.490;2023-05-31T05:39:03;98963.69;;;11.09;80.26
69955;BME280;57279;55.912;37.490;2023-05-31T05:41:33;98971.78;;;11.09;80.57
69955;BME280;57279;55.912;37.490;2023-05-31T05:44:00;98968.56;;;11.12;80.50
69955;BME280;57279;55.912;37.490;2023-05-31T05:46:26;98974.19;;;11.15;80.89
69955;BME280;57279;55.912;37.490;2023-05-31T05:48:52;98967.19;;;11.09;80.47
69955;BME280;57279;55.912;37.490;2023-05-31T05:51:21;98977.44;;;11.02;81.25
69955;BME280;57279;55.912;37.490;2023-05-31T05:53:47;98970.72;;;11.05;81.21
69955;BME280;57279;55.912;37.490;2023-05-31T05:56:12;98975.31;;;11.04;81.21
69955;BME280;57279;55.912;37.490;2023-05-31T05:58:54;98981.22;;;11.17;81.60
69955;BME280;57279;55.912;37.490;2023-05-31T06:01:59;98988.28;;;10.97;81.43
69955;BME280;57279;55.912;37.490;2023-05-31T06:04:25;98993.97;;;11.01;81.56
69955;BME280;57279;55.912;37.490;2023-05-31T06:06:51;98991.00;;;10.97;81.49
69955;BME280;57279;55.912;37.490;2023-05-31T06:09:17;98985.31;;;10.99;81.63
69955;BME280;57279;55.912;37.490;2023-05-31T06:11:43;98980.97;;;10.98;81.74
69955;BME280;57279;55.912;37.490;2023-05-31T06:14:09;98975.31;;;10.89;81.58
69955;BME280;57279;55.912;37.490;2023-05-31T06:16:41;98972.06;;;10.87;82.21
69955;BME280;57279;55.912;37.490;2023-05-31T06:19:07;98973.72;;;10.78;82.60
69955;BME280;57279;55.912;37.490;2023-05-31T06:21:33;98969.66;;;10.75;83.31
69955;BME280;57279;55.912;37.490;2023-05-31T06:24:00;98971.56;;;10.80;83.32
69955;BME280;57279;55.912;37.490;2023-05-31T06:26:27;98966.94;;;10.75;83.07
69955;BME280;57279;55.912;37.490;2023-05-31T06:28:53;98970.19;;;10.87;83.40
69955;BME280;57279;55.912;37.490;2023-05-31T06:31:44;98959.38;;;10.92;82.86
69955;BME280;57279;55.912;37.490;2023-05-31T06:34:10;98962.06;;;10.98;83.02
69955;BME280;57279;55.912;37.490;2023-05-31T06:36:36;98957.50;;;10.93;82.83
69955;BME280;57279;55.912;37.490;2023-05-31T06:39:02;98949.38;;;10.98;82.90
69955;BME280;57279;55.912;37.490;2023-05-31T06:41:28;98945.56;;;11.09;82.74
69955;BME280;57279;55.912;37.490;2023-05-31T06:43:55;98936.94;;;11.02;82.67
69955;BME280;57279;55.912;37.490;2023-05-31T06:46:40;98932.88;;;11.10;82.58
69955;BME280;57279;55.912;37.490;2023-05-31T06:49:32;98933.69;;;11.00;82.38
69955;BME280;57279;55.912;37.490;2023-05-31T06:52:33;98928.81;;;11.07;82.62
69955;BME280;57279;55.912;37.490;2023-05-31T06:55:14;98923.72;;;11.01;81.80
69955;BME280;57279;55.912;37.490;2023-05-31T06:57:40;98929.63;;;11.08;81.88
69955;BME280;57279;55.912;37.490;2023-05-31T07:00:06;98925.03;;;11.19;82.32
69955;BME280;57279;55.912;37.490;2023-05-31T07:02:36;98927.19;;;11.11;81.74
69955;BME280;57279;55.912;37.490;2023-05-31T07:05:02;98931.22;;;11.19;81.77
69955;BME280;57279;55.912;37.490;2023-05-31T07:07:29;98923.13;;;11.19;81.71
69955;BME280;57279;55.912;37.490;2023-05-31T07:09:55;98924.44;;;11.32;81.87
69955;BME280;57279;55.912;37.490;2023-05-31T07:12:21;98931.75;;;11.37;81.11
69955;BME280;57279;55.912;37.490;2023-05-31T07:14:47;98927.41;;;11.41;81.38
69955;BME280;57279;55.912;37.490;2023-05-31T07:17:13;98927.69;;;11.29;81.13
69955;BME280;57279;55.912;37.490;2023-05-31T07:19:47;98928.53;;;11.24;80.95
69955;BME280;57279;55.912;37.490;2023-05-31T07:22:17;98937.94;;;11.32;81.37
69955;BME280;57279;55.912;37.490;2023-05-31T07:24:43;98945.53;;;11.35;81.20
69955;BME280;57279;55.912;37.490;2023-05-31T07:27:09;98946.00;;;11.47;81.06
69955;BME280;57279;55.912;37.490;2023-05-31T07:29:36;98947.06;;;11.57;81.86
69955;BME280;57279;55.912;37.490;2023-05-31T07:32:02;98943.34;;;11.32;80.80
69955;BME280;57279;55.912;37.490;2023-05-31T07:34:28;98945.00;;;11.23;80.54
69955;BME280;57279;55.912;37.490;2023-05-31T07:36:54;98934.75;;;11.14;80.42
69955;BME280;57279;55.912;37.490;2023-05-31T07:39:21;98932.06;;;11.20;81.03
69955;BME280;57279;55.912;37.490;2023-05-31T07:41:47;98924.75;;;11.20;80.90
69955;BME280;57279;55.912;37.490;2023-05-31T07:44:13;98918.56;;;11.09;80.11
69955;BME280;57279;55.912;37.490;2023-05-31T07:46:45;98913.41;;;11.08;80.38
69955;BME280;57279;55.912;37.490;2023-05-31T07:49:11;98931.22;;;11.19;80.86
69955;BME280;57279;55.912;37.490;2023-05-31T07:51:36;98929.84;;;11.27;80.96
69955;BME280;57279;55.912;37.490;2023-05-31T07:54:02;98925.56;;;11.21;80.74
69955;BME280;57279;55.912;37.490;2023-05-31T07:56:28;98922.06;;;11.15;80.18
69955;BME280;57279;55.912;37.490;2023-05-31T07:58:55;98912.09;;;11.05;79.83
69955;BME280;57279;55.912;37.490;2023-05-31T08:01:20;98910.19;;;11.06;79.91
69955;BME280;57279;55.912;37.490;2023-05-31T08:03:46;98903.97;;;11.00;79.89
69955;BME280;57279;55.912;37.490;2023-05-31T08:06:12;98904.28;;;10.99;79.97
69955;BME280;57279;55.912;37.490;2023-05-31T08:08:38;98900.78;;;10.93;80.06
69955;BME280;57279;55.912;37.490;2023-05-31T08:11:04;98884.56;;;10.83;79.85
69955;BME280;57279;55.912;37.490;2023-05-31T08:13:30;98888.91;;;10.84;80.23
69955;BME280;57279;55.912;37.490;2023-05-31T08:15:56;98893.22;;;10.95;80.60
69955;BME280;57279;55.912;37.490;2023-05-31T08:18:22;98888.34;;;10.97;79.68
69955;BME280;57279;55.912;37.490;2023-05-31T08:20:48;98895.59;;;11.07;79.38
69955;BME280;57279;55.912;37.490;2023-05-31T08:23:18;98899.38;;;11.16;79.26
69955;BME280;57279;55.912;37.490;2023-05-31T08:25:44;98909.34;;;11.26;78.83
69955;BME280;57279;55.912;37.490;2023-05-31T08:28:10;98915.22;;;11.38;78.22
69955;BME280;57279;55.912;37.490;2023-05-31T08:30:35;98921.78;;;11.17;76.57
69955;BME280;57279;55.912;37.490;2023-05-31T08:33:02;98935.78;;;11.29;77.31
69955;BME280;57279;55.912;37.490;2023-05-31T08:35:27;98926.56;;;11.40;76.99
69955;BME280;57279;55.912;37.490;2023-05-31T08:37:53;98932.97;;;11.65;77.77
69955;BME280;57279;55.912;37.490;2023-05-31T08:40:20;98934.59;;;11.66;75.53
69955;BME280;57279;55.912;37.490;2023-05-31T08:42:55;98942.91;;;11.85;75.91
69955;BME280;57279;55.912;37.490;2023-05-31T08:45:21;98933.09;;;11.99;75.42
69955;BME280;57279;55.912;37.490;2023-05-31T08:50:45;98944.75;;;11.95;74.54
69955;BME280;57279;55.912;37.490;2023-05-31T08:53:12;98955.16;;;11.62;72.75
69955;BME280;57279;55.912;37.490;2023-05-31T08:55:41;98951.88;;;11.65;72.56
69955;BME280;57279;55.912;37.490;2023-05-31T08:58:09;98945.94;;;11.73;72.58
69955;BME280;57279;55.912;37.490;2023-05-31T09:00:36;98947.28;;;11.70;72.29
69955;BME280;57279;55.912;37.490;2023-05-31T09:03:05;98952.72;;;11.60;72.84
69955;BME280;57279;55.912;37.490;2023-05-31T09:05:32;98955.66;;;11.74;73.21
69955;BME280;57279;55.912;37.490;2023-05-31T09:07:59;98951.25;;;11.93;73.15
69955;BME280;57279;55.912;37.490;2023-05-31T09:10:25;98960.06;;;12.15;73.45
69955;BME280;57279;55.912;37.490;2023-05-31T09:12:51;98952.91;;;11.84;71.28
69955;BME280;57279;55.912;37.490;2023-05-31T09:15:22;98956.66;;;11.93;72.36
69955;BME280;57279;55.912;37.490;2023-05-31T09:17:49;98960.84;;;11.65;71.18
69955;BME280;57279;55.912;37.490;2023-05-31T09:20:18;98955.44;;;11.55;72.13
69955;BME280;57279;55.912;37.490;2023-05-31T09:22:48;98956.16;;;11.86;73.30
69955;BME280;57279;55.912;37.490;2023-05-31T09:25:17;98950.19;;;11.89;72.18
69955;BME280;57279;55.912;37.490;2023-05-31T09:27:43;98951.03;;;11.74;72.08
69955;BME280;57279;55.912;37.490;2023-05-31T09:30:11;98955.31;;;11.86;72.55
69955;BME280;57279;55.912;37.490;2023-05-31T09:32:37;98951.72;;;12.11;72.36
69955;BME280;57279;55.912;37.490;2023-05-31T09:35:15;98946.22;;;12.26;71.62
69955;BME280;57279;55.912;37.490;2023-05-31T09:37:48;98954.44;;;12.11;70.45
69955;BME280;57279;55.912;37.490;2023-05-31T09:40:28;98959.91;;;11.96;70.63
69955;BME280;57279;55.912;37.490;2023-05-31T09:42:54;98956.13;;;11.97;70.76
69955;BME280;57279;55.912;37.490;2023-05-31T09:45:20;98958.63;;;12.27;70.07
69955;BME280;57279;55.912;37.490;2023-05-31T09:47:47;98944.94;;;12.13;69.53
69955;BME280;57279;55.912;37.490;2023-05-31T09:50:18;98947.19;;;11.86;69.86
69955;BME280;57279;55.912;37.490;2023-05-31T09:52:45;98956.88;;;12.07;70.11
69955;BME280;57279;55.912;37.490;2023-05-31T09:55:15;98951.75;;;12.01;69.86
69955;BME280;57279;55.912;37.490;2023-05-31T09:57:42;98955.13;;;11.72;70.55
69955;BME280;57279;55.912;37.490;2023-05-31T10:00:16;98959.84;;;11.41;70.96
69955;BME280;57279;55.912;37.490;2023-05-31T10:02:48;98947.75;;;11.12;71.25
69955;BME280;57279;55.912;37.490;2023-05-31T10:05:15;98953.13;;;11.12;71.57
69955;BME280;57279;55.912;37.490;2023-05-31T10:07:43;98946.38;;;11.25;72.04
69955;BME280;57279;55.912;37.490;2023-05-31T10:10:10;98960.16;;;11.13;71.91
69955;BME280;57279;55.912;37.490;2023-05-31T10:12:59;98955.03;;;11.07;72.25
69955;BME280;57279;55.912;37.490;2023-05-31T10:15:27;98952.09;;;10.93;72.25
69955;BME280;57279;55.912;37.490;2023-05-31T10:18:07;98950.44;;;11.07;72.97
69955;BME280;57279;55.912;37.490;2023-05-31T10:20:56;98956.66;;;10.92;73.49
69955;BME280;57279;55.912;37.490;2023-05-31T10:23:25;98955.31;;;11.10;73.55
69955;BME280;57279;55.912;37.490;2023-05-31T10:28:21;98950.44;;;11.18;72.22
69955;BME280;57279;55.912;37.490;2023-05-31T10:30:51;98956.66;;;11.18;72.45
69955;BME280;57279;55.912;37.490;2023-05-31T10:33:17;98953.13;;;11.18;72.62
69955;BME280;57279;55.912;37.490;2023-05-31T10:35:45;98962.31;;;11.22;71.77
69955;BME280;57279;55.912;37.490;2023-05-31T10:38:12;98955.81;;;11.33;71.50
69955;BME280;57279;55.912;37.490;2023-05-31T10:41:01;98966.38;;;11.14;71.07
69955;BME280;57279;55.912;37.490;2023-05-31T10:43:35;98966.97;;;10.85;71.74
69955;BME280;57279;55.912;37.490;2023-05-31T10:46:06;98965.06;;;10.65;71.86
69955;BME280;57279;55.912;37.490;2023-05-31T10:48:51;98976.41;;;10.83;72.37
69955;BME280;57279;55.912;37.490;2023-05-31T10:51:18;98963.44;;;10.95;71.78
69955;BME280;57279;55.912;37.490;2023-05-31T10:53:45;98977.75;;;10.90;71.93
69955;BME280;57279;55.912;37.490;2023-05-31T10:56:15;98981.53;;;10.89;72.33
69955;BME280;57279;55.912;37.490;2023-05-31T10:58:48;98978.03;;;11.04;71.82
69955;BME280;57279;55.912;37.490;2023-05-31T11:01:17;98982.63;;;10.93;71.05
69955;BME280;57279;55.912;37.490;2023-05-31T11:03:50;98990.72;;;10.99;70.80
69955;BME280;57279;55.912;37.490;2023-05-31T11:06:26;98984.50;;;10.98;70.71
69955;BME280;57279;55.912;37.490;2023-05-31T11:09:12;98995.31;;;10.88;70.11
69955;BME280;57279;55.912;37.490;2023-05-31T11:14:23;98986.13;;;10.63;69.99
69955;BME280;57279;55.912;37.490;2023-05-31T11:19:29;98982.88;;;10.71;71.20
69955;BME280;57279;55.912;37.490;2023-05-31T11:22:06;98983.69;;;10.87;70.49
69955;BME280;57279;55.912;37.490;2023-05-31T11:24:49;98989.34;;;10.65;70.25
69955;BME280;57279;55.912;37.490;2023-05-31T11:27:19;98991.22;;;10.54;70.00
69955;BME280;57279;55.912;37.490;2023-05-31T11:32:14;98992.59;;;10.67;69.88
69955;BME280;57279;55.912;37.490;2023-05-31T11:34:55;98995.56;;;10.61;69.86
69955;BME280;57279;55.912;37.490;2023-05-31T11:37:26;98996.91;;;10.63;69.52
69955;BME280;57279;55.912;37.490;2023-05-31T11:39:54;98993.13;;;10.69;69.36
69955;BME280;57279;55.912;37.490;2023-05-31T11:42:23;99000.69;;;10.67;69.03
69955;BME280;57279;55.912;37.490;2023-05-31T11:44:50;99002.31;;;10.58;69.76
69955;BME280;57279;55.912;37.490;2023-05-31T11:47:24;98995.28;;;10.62;69.49
69955;BME280;57279;55.912;37.490;2023-05-31T11:49:51;99001.78;;;10.87;69.41
69955;BME280;57279;55.912;37.490;2023-05-31T11:52:18;98996.38;;;10.92;69.11
69955;BME280;57279;55.912;37.490;2023-05-31T11:54:46;98996.09;;;10.83;68.90
69955;BME280;57279;55.912;37.490;2023-05-31T11:57:15;99001.50;;;10.83;68.62
69955;BME280;57279;55.912;37.490;2023-05-31T11:59:46;98999.09;;;10.66;69.72
69955;BME280;57279;55.912;37.490;2023-05-31T12:02:11;99006.63;;;10.69;69.84
69955;BME280;57279;55.912;37.490;2023-05-31T12:04:42;99006.66;;;10.80;69.54
69955;BME280;57279;55.912;37.490;2023-05-31T12:07:12;98995.03;;;10.74;69.15
69955;BME280;57279;55.912;37.490;2023-05-31T12:09:38;98992.06;;;10.75;68.98
69955;BME280;57279;55.912;37.490;2023-05-31T12:12:04;99001.25;;;10.80;68.89
69955;BME280;57279;55.912;37.490;2023-05-31T12:14:33;99001.78;;;10.97;68.91
69955;BME280;57279;55.912;37.490;2023-05-31T12:17:06;98988.00;;;11.09;68.07
69955;BME280;57279;55.912;37.490;2023-05-31T12:19:32;99005.53;;;11.17;67.71
69955;BME280;57279;55.912;37.490;2023-05-31T12:21:58;98996.34;;;11.23;67.27
69955;BME280;57279;55.912;37.490;2023-05-31T12:24:24;98986.59;;;11.32;67.46
69955;BME280;57279;55.912;37.490;2023-05-31T12:26:50;98991.44;;;11.45;66.74
69955;BME280;57279;55.912;37.490;2023-05-31T12:29:17;98989.56;;;11.35;66.18
69955;BME280;57279;55.912;37.490;2023-05-31T12:31:44;98990.13;;;11.22;66.51
69955;BME280;57279;55.912;37.490;2023-05-31T12:34:12;98987.16;;;11.24;65.94
69955;BME280;57279;55.912;37.490;2023-05-31T12:36:47;98998.00;;;10.98;66.42
69955;BME280;57279;55.912;37.490;2023-05-31T12:39:17;98993.97;;;11.01;66.59
69955;BME280;57279;55.912;37.490;2023-05-31T12:41:47;98991.50;;;10.89;66.78
69955;BME280;57279;55.912;37.490;2023-05-31T12:44:15;98988.81;;;10.94;66.98
69955;BME280;57279;55.912;37.490;2023-05-31T12:46:46;98985.03;;;11.05;66.71
69955;BME280;57279;55.912;37.490;2023-05-31T12:49:20;98991.53;;;11.04;66.23
69955;BME280;57279;55.912;37.490;2023-05-31T12:52:09;98985.84;;;11.16;66.19
69955;BME280;57279;55.912;37.490;2023-05-31T12:54:36;98988.00;;;11.09;65.88
69955;BME280;57279;55.912;37.490;2023-05-31T12:57:05;98993.66;;;11.07;65.15
69955;BME280;57279;55.912;37.490;2023-05-31T12:59:34;98996.91;;;11.20;65.08
69955;BME280;57279;55.912;37.490;2023-05-31T13:02:02;98997.44;;;11.17;64.95
69955;BME280;57279;55.912;37.490;2023-05-31T13:04:28;98982.06;;;11.12;64.74
69955;BME280;57279;55.912;37.490;2023-05-31T13:06:54;98985.00;;;11.15;65.29
69955;BME280;57279;55.912;37.490;2023-05-31T13:09:22;98986.09;;;11.14;65.05
69955;BME280;57279;55.912;37.490;2023-05-31T13:11:48;98992.31;;;11.15;65.35
69955;BME280;57279;55.912;37.490;2023-05-31T13:14:19;98990.13;;;11.22;65.73
69955;BME280;57279;55.912;37.490;2023-05-31T13:16:46;98996.88;;;11.25;65.53